Time;durP1;ratioP1;P1;durP2;ratioP2;P2;SDS_P1;SDS_P2;PMS_P1;PMS_P2;Temp;Humidity;BMP_temperature;BMP_pressure;BME280_temperature;BME280_humidity;BME280_pressure;Samples;Min_cycle;Max_cycle;Signal;HPM_P1;HPM_P2
2023/12/05 00:00:52;;;;;;;26.92;15.45;;;2.20;99.90;;;;;;5054498;28;20640;-37
2023/12/05 00:03:18;;;;;;;22.10;12.40;;;2.10;99.90;;;;;;5021276;28;20207;-35
2023/12/05 00:05:43;;;;;;;23.58;12.68;;;2.10;99.90;;;;;;5021762;28;20251;-38
2023/12/05 00:08:09;;;;;;;22.45;14.77;;;2.10;99.90;;;;;;5022164;28;20273;-34
2023/12/05 00:10:35;;;;;;;24.65;15.98;;;2.10;99.90;;;;;;5053967;28;20216;-33
2023/12/05 00:13:02;;;;;;;24.48;14.52;;;2.00;99.90;;;;;;5021734;28;20242;-38
2023/12/05 00:15:28;;;;;;;22.58;14.25;;;2.00;99.90;;;;;;5020499;28;20709;-38
2023/12/05 00:17:53;;;;;;;24.85;15.35;;;2.00;99.90;;;;;;5053506;28;20184;-39
2023/12/05 00:20:19;;;;;;;23.25;14.98;;;2.00;99.90;;;;;;5021508;28;20195;-38
2023/12/05 00:22:45;;;;;;;26.05;15.25;;;1.90;99.90;;;;;;5022154;28;20192;-36
2023/12/05 00:25:12;;;;;;;21.27;13.02;;;1.90;99.90;;;;;;5020638;28;20199;-38
2023/12/05 00:27:38;;;;;;;23.20;14.55;;;1.90;99.90;;;;;;5021016;28;20222;-36
2023/12/05 00:30:05;;;;;;;21.05;13.55;;;1.90;99.90;;;;;;5021824;28;21031;-38
2023/12/05 00:32:31;;;;;;;20.00;12.80;;;1.90;99.90;;;;;;5021719;28;20188;-35
2023/12/05 00:34:57;;;;;;;21.33;14.23;;;1.90;99.90;;;;;;5020562;28;20187;-37
2023/12/05 00:37:23;;;;;;;25.13;15.32;;;1.80;99.90;;;;;;5020876;28;20318;-38
2023/12/05 00:39:49;;;;;;;23.98;14.65;;;1.80;99.90;;;;;;5021570;28;20191;-35
2023/12/05 00:42:14;;;;;;;23.75;14.70;;;1.80;99.90;;;;;;5021420;28;20202;-36
2023/12/05 00:44:40;;;;;;;24.05;15.43;;;1.80;99.90;;;;;;5020007;28;20242;-35
2023/12/05 00:47:06;;;;;;;23.88;15.77;;;1.80;99.90;;;;;;5035546;28;20226;-37
2023/12/05 00:49:34;;;;;;;24.13;15.13;;;1.80;99.90;;;;;;5020998;28;20184;-37
2023/12/05 00:52:00;;;;;;;27.40;16.98;;;1.80;99.90;;;;;;5021440;28;20184;-37
2023/12/05 00:54:26;;;;;;;20.90;12.73;;;1.80;99.90;;;;;;5052797;28;20303;-35
2023/12/05 00:56:53;;;;;;;25.73;16.10;;;1.90;99.90;;;;;;5021040;28;20715;-35
2023/12/05 00:59:19;;;;;;;24.40;16.60;;;1.80;99.90;;;;;;5020173;28;20172;-37
2023/12/05 01:01:45;;;;;;;26.58;16.52;;;1.80;99.90;;;;;;5021345;28;20206;-35
2023/12/05 01:04:11;;;;;;;26.30;16.65;;;1.80;99.90;;;;;;5020146;28;20188;-36
2023/12/05 01:06:37;;;;;;;26.42;17.33;;;1.80;99.90;;;;;;5020765;28;20254;-37
2023/12/05 01:09:05;;;;;;;32.00;17.13;;;1.90;99.90;;;;;;5021697;28;20207;-35
2023/12/05 01:11:31;;;;;;;27.38;16.77;;;1.80;99.90;;;;;;5021063;28;20959;-41
2023/12/05 01:13:57;;;;;;;29.17;17.60;;;1.80;99.90;;;;;;5021308;28;20207;-37
2023/12/05 01:16:23;;;;;;;27.30;17.10;;;1.90;99.90;;;;;;5020805;28;20903;-37
2023/12/05 01:18:49;;;;;;;25.67;17.38;;;1.90;99.90;;;;;;5020199;28;20695;-36
2023/12/05 01:21:15;;;;;;;27.42;15.95;;;1.90;99.90;;;;;;5018916;28;20249;-36
2023/12/05 01:23:41;;;;;;;26.80;16.40;;;1.90;99.90;;;;;;5021229;28;20958;-36
2023/12/05 01:26:07;;;;;;;25.83;16.25;;;1.90;99.90;;;;;;5052701;28;20293;-36
2023/12/05 01:28:33;;;;;;;24.42;15.93;;;1.90;99.90;;;;;;5019572;28;20187;-38
2023/12/05 01:30:59;;;;;;;25.48;16.92;;;2.00;99.90;;;;;;5019647;28;20184;-35
2023/12/05 01:33:24;;;;;;;26.50;17.08;;;1.90;99.90;;;;;;5053023;28;20246;-36
2023/12/05 01:35:50;;;;;;;28.20;16.70;;;2.00;99.90;;;;;;5020616;28;20187;-38
2023/12/05 01:38:18;;;;;;;24.73;16.10;;;2.00;99.90;;;;;;5051945;28;20229;-39
2023/12/05 01:40:44;;;;;;;27.60;16.95;;;2.00;99.90;;;;;;5020807;28;20191;-35
2023/12/05 01:43:10;;;;;;;27.30;16.08;;;1.90;99.90;;;;;;5021105;28;20258;-35
2023/12/05 01:45:36;;;;;;;27.58;16.88;;;1.90;99.90;;;;;;5021047;28;20196;-36
2023/12/05 01:48:04;;;;;;;26.20;16.08;;;1.90;99.90;;;;;;5020743;28;20524;-37
2023/12/05 01:50:32;;;;;;;27.77;17.75;;;1.90;99.90;;;;;;5020970;28;20184;-37
2023/12/05 01:53:03;;;;;;;27.50;17.35;;;1.90;99.90;;;;;;5020411;28;20289;-36
2023/12/05 01:55:30;;;;;;;27.00;16.48;;;1.90;99.90;;;;;;5020247;28;20184;-34
2023/12/05 01:57:57;;;;;;;28.55;16.73;;;1.90;99.90;;;;;;5019987;28;20196;-36
2023/12/05 02:00:24;;;;;;;27.35;17.00;;;1.90;99.90;;;;;;5018673;28;20640;-36
2023/12/05 02:02:50;;;;;;;30.25;15.98;;;1.90;99.90;;;;;;5019396;28;20226;-36
2023/12/05 02:05:16;;;;;;;27.92;17.50;;;1.90;99.90;;;;;;5019788;28;20282;-37
2023/12/05 02:07:42;;;;;;;21.90;13.07;;;1.90;99.90;;;;;;5020683;28;21124;-36
2023/12/05 02:10:10;;;;;;;27.38;17.08;;;1.90;99.90;;;;;;5020263;28;20192;-37
2023/12/05 02:12:38;;;;;;;28.83;17.85;;;1.90;99.90;;;;;;5018447;28;20200;-36
2023/12/05 02:15:06;;;;;;;28.45;18.02;;;1.90;99.90;;;;;;5020380;28;20195;-43
2023/12/05 02:18:03;;;;;;;23.83;15.20;;;1.90;99.90;;;;;;5020195;28;20271;-36
2023/12/05 02:20:35;;;;;;;26.83;16.55;;;1.90;99.90;;;;;;5021166;28;20179;-39
2023/12/05 02:23:01;;;;;;;28.88;18.05;;;1.90;99.90;;;;;;5019422;28;20206;-36
2023/12/05 02:25:50;;;;;;;29.10;18.10;;;1.90;99.90;;;;;;5020381;28;20192;-37
2023/12/05 02:28:18;;;;;;;26.98;17.85;;;1.90;99.90;;;;;;5018867;28;20248;-37
2023/12/05 02:30:44;;;;;;;28.42;17.00;;;1.90;99.90;;;;;;5020782;28;20187;-36
2023/12/05 02:33:10;;;;;;;26.63;17.73;;;1.90;99.90;;;;;;5021499;28;20191;-37
2023/12/05 02:35:37;;;;;;;25.52;15.50;;;1.90;99.90;;;;;;5023889;28;20222;-38
2023/12/05 02:38:11;;;;;;;27.98;16.88;;;1.90;99.90;;;;;;5024097;28;20279;-39
2023/12/05 02:40:46;;;;;;;29.35;17.77;;;1.90;99.90;;;;;;5022629;28;20172;-37
2023/12/05 02:43:18;;;;;;;27.73;17.35;;;1.90;99.90;;;;;;5023664;28;20199;-36
2023/12/05 02:45:49;;;;;;;26.05;17.33;;;1.90;99.90;;;;;;5023621;28;20176;-38
2023/12/05 02:48:16;;;;;;;28.77;16.75;;;1.90;99.90;;;;;;5022602;28;20223;-35
2023/12/05 02:50:42;;;;;;;26.52;16.63;;;1.90;99.90;;;;;;5023275;28;20686;-39
2023/12/05 02:53:08;;;;;;;29.08;17.20;;;1.90;99.90;;;;;;5021890;28;20179;-35
2023/12/05 02:55:34;;;;;;;28.70;18.42;;;1.90;99.90;;;;;;5018832;28;20614;-38
2023/12/05 02:58:00;;;;;;;28.95;18.20;;;1.90;99.90;;;;;;5023871;28;20192;-37
2023/12/05 03:00:25;;;;;;;23.05;14.25;;;1.90;99.90;;;;;;5023511;28;20280;-34
2023/12/05 03:02:51;;;;;;;27.42;18.13;;;1.90;99.90;;;;;;5023236;28;20223;-38
2023/12/05 03:05:17;;;;;;;26.70;17.33;;;1.90;99.90;;;;;;5023020;28;20219;-38
2023/12/05 03:07:43;;;;;;;29.92;19.00;;;1.90;99.90;;;;;;5023127;28;20755;-37
2023/12/05 03:10:09;;;;;;;31.00;18.63;;;1.90;99.90;;;;;;5024040;28;20335;-37
2023/12/05 03:12:35;;;;;;;27.17;18.17;;;1.90;99.90;;;;;;5023248;28;20182;-38
2023/12/05 03:15:01;;;;;;;29.42;17.90;;;1.90;99.90;;;;;;5022820;28;20192;-36
2023/12/05 03:17:27;;;;;;;29.00;19.05;;;1.90;99.90;;;;;;5021785;28;20984;-37
2023/12/05 03:19:53;;;;;;;28.52;18.77;;;1.90;99.90;;;;;;5021593;28;20555;-38
2023/12/05 03:22:18;;;;;;;29.17;19.40;;;1.90;99.90;;;;;;5023270;28;20725;-37
2023/12/05 03:24:44;;;;;;;31.27;18.95;;;1.90;99.90;;;;;;5021998;28;20192;-36
2023/12/05 03:27:10;;;;;;;30.40;19.50;;;1.90;99.90;;;;;;5022375;28;20243;-36
2023/12/05 03:29:36;;;;;;;30.45;19.13;;;1.90;99.90;;;;;;5022774;28;20567;-35
2023/12/05 03:32:03;;;;;;;29.02;18.23;;;2.00;99.90;;;;;;5022645;28;20271;-37
2023/12/05 03:34:28;;;;;;;29.90;19.25;;;1.90;99.90;;;;;;5054311;28;20278;-35
2023/12/05 03:36:54;;;;;;;30.60;20.02;;;1.90;99.90;;;;;;5054796;28;20708;-35
2023/12/05 03:39:20;;;;;;;29.17;18.13;;;2.00;99.90;;;;;;5023205;28;20183;-37
2023/12/05 03:41:47;;;;;;;33.00;20.05;;;2.00;99.90;;;;;;5012275;28;20226;-35
2023/12/05 03:44:13;;;;;;;31.38;18.77;;;2.00;99.90;;;;;;5022063;28;20187;-36
2023/12/05 03:46:39;;;;;;;31.20;20.40;;;1.90;99.90;;;;;;5022069;28;20223;-36
2023/12/05 03:49:05;;;;;;;31.05;20.35;;;1.90;99.90;;;;;;5022747;28;20274;-34
2023/12/05 03:51:31;;;;;;;30.27;19.98;;;1.90;99.90;;;;;;5022858;28;20190;-37
2023/12/05 03:53:57;;;;;;;31.95;19.05;;;1.90;99.90;;;;;;5022641;28;20648;-35
2023/12/05 03:56:23;;;;;;;32.78;21.02;;;1.90;99.90;;;;;;5022459;28;20179;-37
2023/12/05 03:58:48;;;;;;;31.13;20.60;;;1.90;99.90;;;;;;5022501;28;20184;-36
2023/12/05 04:01:15;;;;;;;32.33;20.30;;;1.90;99.90;;;;;;5021929;28;20238;-36
2023/12/05 04:03:42;;;;;;;32.67;20.45;;;1.90;99.90;;;;;;5022747;28;20191;-40
2023/12/05 04:06:08;;;;;;;31.33;19.13;;;1.90;99.90;;;;;;5021600;28;20597;-35
2023/12/05 04:08:34;;;;;;;30.63;20.15;;;1.90;99.90;;;;;;5021326;28;20207;-39
2023/12/05 04:11:00;;;;;;;29.52;19.85;;;1.90;99.90;;;;;;5022450;28;20203;-37
2023/12/05 04:13:25;;;;;;;31.92;20.23;;;1.90;99.90;;;;;;5021757;28;20190;-37
2023/12/05 04:15:51;;;;;;;34.20;21.20;;;1.90;99.90;;;;;;5022665;28;20655;-38
2023/12/05 04:18:17;;;;;;;32.03;20.30;;;1.90;99.90;;;;;;5053381;28;20191;-38
2023/12/05 04:20:43;;;;;;;31.40;19.98;;;1.90;99.90;;;;;;5022064;28;20200;-37
2023/12/05 04:23:09;;;;;;;29.88;19.50;;;1.90;99.90;;;;;;5022144;28;20285;-35
2023/12/05 04:25:35;;;;;;;33.92;21.05;;;1.80;99.90;;;;;;5021574;28;20220;-38
2023/12/05 04:28:01;;;;;;;30.38;19.63;;;1.80;99.90;;;;;;5020976;28;20219;-42
2023/12/05 04:30:27;;;;;;;32.45;20.25;;;1.90;99.90;;;;;;5021378;28;20210;-36
2023/12/05 04:32:52;;;;;;;33.90;20.17;;;1.80;99.90;;;;;;5021438;28;20176;-35
2023/12/05 04:35:18;;;;;;;30.92;19.52;;;1.80;99.90;;;;;;5021924;28;20730;-39
2023/12/05 04:37:44;;;;;;;32.20;20.73;;;1.80;99.90;;;;;;5020744;28;20183;-37
2023/12/05 04:40:10;;;;;;;33.97;21.48;;;1.80;99.90;;;;;;5021342;28;20362;-35
2023/12/05 04:42:37;;;;;;;33.13;21.73;;;1.80;99.90;;;;;;5021451;28;20198;-35
2023/12/05 04:45:03;;;;;;;31.42;20.02;;;1.80;99.90;;;;;;5021506;28;20279;-35
2023/12/05 04:47:29;;;;;;;30.00;19.05;;;1.80;99.90;;;;;;5020465;28;20580;-37
2023/12/05 04:49:55;;;;;;;30.25;19.48;;;1.70;99.90;;;;;;5053511;28;20195;-37
2023/12/05 04:52:21;;;;;;;36.13;20.30;;;1.70;99.90;;;;;;5021945;28;20664;-36
2023/12/05 04:54:47;;;;;;;32.28;20.30;;;1.70;99.90;;;;;;5020635;28;20632;-37
2023/12/05 04:57:13;;;;;;;31.20;20.02;;;1.70;99.90;;;;;;5020420;28;20196;-36
2023/12/05 04:59:38;;;;;;;32.90;20.55;;;1.70;99.90;;;;;;5021569;28;20200;-36
2023/12/05 05:02:04;;;;;;;33.47;20.20;;;1.70;99.90;;;;;;5021255;28;20198;-37
2023/12/05 05:04:30;;;;;;;32.50;19.98;;;1.70;99.90;;;;;;5021077;28;20242;-37
2023/12/05 05:06:56;;;;;;;32.92;20.48;;;1.70;99.90;;;;;;5019548;28;20550;-36
2023/12/05 05:09:22;;;;;;;30.95;18.50;;;1.70;99.90;;;;;;5021278;28;20259;-35
2023/12/05 05:11:48;;;;;;;31.48;19.58;;;1.70;99.90;;;;;;5020908;28;20199;-39
2023/12/05 05:14:14;;;;;;;33.58;20.08;;;1.70;99.90;;;;;;5019743;28;21206;-36
2023/12/05 05:16:40;;;;;;;29.33;19.00;;;1.70;99.90;;;;;;5020954;28;20195;-35
2023/12/05 05:19:06;;;;;;;31.42;19.83;;;1.70;99.90;;;;;;5018952;28;20180;-35
2023/12/05 05:21:31;;;;;;;30.95;19.25;;;1.60;99.90;;;;;;5002196;28;20202;-38
2023/12/05 05:23:57;;;;;;;30.52;19.15;;;1.70;99.90;;;;;;5021085;28;20203;-35
2023/12/05 05:26:23;;;;;;;33.47;19.52;;;1.70;99.90;;;;;;5019670;28;20261;-38
2023/12/05 05:28:49;;;;;;;31.38;20.45;;;1.60;99.90;;;;;;5020245;28;20270;-37
2023/12/05 05:31:15;;;;;;;31.63;19.92;;;1.60;99.90;;;;;;5020621;28;20228;-37
2023/12/05 05:33:41;;;;;;;30.45;18.95;;;1.60;99.90;;;;;;5021318;28;20261;-38
2023/12/05 05:36:07;;;;;;;33.40;20.23;;;1.60;99.90;;;;;;5020577;28;20184;-38
2023/12/05 05:38:33;;;;;;;31.60;20.73;;;1.60;99.90;;;;;;5020774;28;20612;-35
2023/12/05 05:41:04;;;;;;;30.67;20.00;;;1.70;99.90;;;;;;5021161;28;20204;-37
2023/12/05 05:43:31;;;;;;;35.67;20.70;;;1.70;99.90;;;;;;5019054;28;20196;-37
2023/12/05 05:45:56;;;;;;;31.42;19.17;;;1.70;99.90;;;;;;5019536;28;20946;-37
2023/12/05 05:48:22;;;;;;;33.75;20.48;;;1.70;99.90;;;;;;5019612;28;20266;-38
2023/12/05 05:50:48;;;;;;;32.50;19.95;;;1.60;99.90;;;;;;5020615;28;20269;-35
2023/12/05 05:53:14;;;;;;;33.28;20.45;;;1.60;99.90;;;;;;5020406;28;20192;-39
2023/12/05 05:55:40;;;;;;;33.70;20.58;;;1.60;99.90;;;;;;5051943;28;20223;-35
2023/12/05 05:58:10;;;;;;;34.70;21.35;;;1.60;99.90;;;;;;5020266;28;20283;-38
2023/12/05 06:00:36;;;;;;;35.13;20.55;;;1.60;99.90;;;;;;5019643;28;20188;-37
2023/12/05 06:03:03;;;;;;;35.67;22.17;;;1.70;99.90;;;;;;5019698;28;20246;-39
2023/12/05 06:05:29;;;;;;;36.50;22.52;;;1.70;99.90;;;;;;5050623;28;20236;-36
2023/12/05 06:07:55;;;;;;;36.25;21.02;;;1.70;99.90;;;;;;5023948;28;20215;-37
2023/12/05 06:10:21;;;;;;;33.30;21.77;;;1.70;99.90;;;;;;5024781;28;20187;-38
2023/12/05 06:12:47;;;;;;;35.50;21.83;;;1.60;99.90;;;;;;5023690;28;20278;-36
2023/12/05 06:15:13;;;;;;;34.95;20.45;;;1.60;99.90;;;;;;5024034;28;20270;-35
2023/12/05 06:17:39;;;;;;;35.47;22.20;;;1.60;99.90;;;;;;5024165;28;20199;-38
2023/12/05 06:20:06;;;;;;;33.33;21.25;;;1.60;99.90;;;;;;5055996;28;20195;-37
2023/12/05 06:22:32;;;;;;;35.22;21.05;;;1.60;99.90;;;;;;5023685;28;20653;-37
2023/12/05 06:24:58;;;;;;;34.10;21.30;;;1.60;99.90;;;;;;5023203;28;20207;-35
2023/12/05 06:27:23;;;;;;;37.80;21.92;;;1.70;99.90;;;;;;5024047;28;20242;-35
2023/12/05 06:29:49;;;;;;;36.00;21.10;;;1.70;99.90;;;;;;5023082;28;20254;-38
2023/12/05 06:32:15;;;;;;;36.03;21.63;;;1.70;99.90;;;;;;5023420;28;20656;-36
2023/12/05 06:34:41;;;;;;;36.47;21.50;;;1.70;99.90;;;;;;5023469;28;20582;-35
2023/12/05 06:37:08;;;;;;;33.85;20.75;;;1.70;99.90;;;;;;5023720;28;20207;-41
2023/12/05 06:39:35;;;;;;;34.63;21.40;;;1.60;99.90;;;;;;5023021;28;20678;-37
2023/12/05 06:42:01;;;;;;;34.95;21.85;;;1.70;99.90;;;;;;5026403;28;20220;-35
2023/12/05 06:44:26;;;;;;;38.08;22.13;;;1.70;99.90;;;;;;5038423;28;20235;-37
2023/12/05 06:46:52;;;;;;;36.50;22.30;;;1.70;99.90;;;;;;5022913;28;20579;-39
2023/12/05 06:49:18;;;;;;;33.60;20.63;;;1.70;99.90;;;;;;5023053;28;20184;-36
2023/12/05 06:51:44;;;;;;;33.42;20.52;;;1.70;99.90;;;;;;5022556;28;20188;-39
2023/12/05 06:54:10;;;;;;;32.33;20.80;;;1.70;99.90;;;;;;5021823;28;20180;-35
2023/12/05 06:56:36;;;;;;;38.03;21.98;;;1.80;99.90;;;;;;5023076;28;20189;-36
2023/12/05 06:59:03;;;;;;;36.15;21.13;;;1.80;99.90;;;;;;5054387;28;20207;-37
2023/12/05 07:01:29;;;;;;;39.33;23.30;;;1.80;99.90;;;;;;5020597;28;20628;-37
2023/12/05 07:03:55;;;;;;;38.35;22.23;;;1.70;99.90;;;;;;5022955;28;20297;-36
2023/12/05 07:06:21;;;;;;;37.88;22.85;;;1.80;99.90;;;;;;5021995;28;20670;-38
2023/12/05 07:08:47;;;;;;;34.60;22.05;;;1.80;99.90;;;;;;5022660;28;20191;-37
2023/12/05 07:11:13;;;;;;;34.55;22.45;;;1.80;99.90;;;;;;5021908;28;20192;-37
2023/12/05 07:13:39;;;;;;;33.35;21.13;;;1.80;99.90;;;;;;5022349;28;20188;-35
2023/12/05 07:16:05;;;;;;;36.08;22.35;;;1.80;99.90;;;;;;5022163;28;20330;-38
2023/12/05 07:18:31;;;;;;;36.33;22.67;;;1.80;99.90;;;;;;5053716;28;20287;-36
2023/12/05 07:20:57;;;;;;;37.72;24.05;;;1.80;99.90;;;;;;5021999;28;20566;-37
2023/12/05 07:23:23;;;;;;;37.38;23.75;;;1.80;99.90;;;;;;5022572;28;20200;-37
2023/12/05 07:25:49;;;;;;;39.20;24.20;;;1.80;99.90;;;;;;5021664;28;20192;-38
2023/12/05 07:28:15;;;;;;;42.58;25.08;;;1.90;99.90;;;;;;5022974;28;20268;-37
2023/12/05 07:30:41;;;;;;;39.65;24.27;;;1.90;99.90;;;;;;5022434;28;20184;-37
2023/12/05 07:33:07;;;;;;;41.55;25.10;;;1.90;99.90;;;;;;5020702;28;20188;-36
2023/12/05 07:35:33;;;;;;;41.45;24.33;;;1.80;99.90;;;;;;5020062;28;20172;-36
2023/12/05 07:37:59;;;;;;;42.47;25.60;;;1.90;99.90;;;;;;5021311;28;20202;-36
2023/12/05 07:40:26;;;;;;;39.55;23.58;;;1.90;99.90;;;;;;5021452;28;20644;-36
2023/12/05 07:42:52;;;;;;;40.40;25.23;;;1.80;99.90;;;;;;5021203;28;20196;-35
2023/12/05 07:45:18;;;;;;;39.88;24.30;;;1.80;99.90;;;;;;5053015;28;20218;-36
2023/12/05 07:47:47;;;;;;;37.75;23.13;;;1.90;99.90;;;;;;5022416;28;20247;-39
2023/12/05 07:50:13;;;;;;;39.10;22.63;;;1.90;99.90;;;;;;5020496;28;20735;-38
2023/12/05 07:52:39;;;;;;;37.90;24.20;;;1.90;99.90;;;;;;5021103;28;20180;-38
2023/12/05 07:55:05;;;;;;;38.13;22.92;;;1.80;99.90;;;;;;5022379;28;20211;-36
2023/12/05 07:57:31;;;;;;;41.13;23.27;;;1.80;99.90;;;;;;5021490;28;20180;-35
2023/12/05 07:59:59;;;;;;;39.10;23.55;;;1.80;99.90;;;;;;5019866;28;20196;-38
2023/12/05 08:02:25;;;;;;;37.55;22.00;;;1.80;99.90;;;;;;5052777;28;20241;-37
2023/12/05 08:04:51;;;;;;;36.97;23.23;;;1.90;99.90;;;;;;5021199;28;20207;-39
2023/12/05 08:07:17;;;;;;;41.40;23.05;;;1.90;99.90;;;;;;5020028;28;20315;-36
2023/12/05 08:09:43;;;;;;;39.05;23.52;;;1.90;99.90;;;;;;5020410;28;20191;-37
2023/12/05 08:12:09;;;;;;;38.92;24.05;;;1.90;99.90;;;;;;5020881;28;20223;-40
2023/12/05 08:14:35;;;;;;;41.78;24.95;;;1.90;99.90;;;;;;5019576;28;20199;-37
2023/12/05 08:17:02;;;;;;;37.72;23.17;;;2.00;99.90;;;;;;5021704;28;20207;-37
2023/12/05 08:19:28;;;;;;;44.55;24.00;;;2.00;99.90;;;;;;5020811;28;20195;-38
2023/12/05 08:21:54;;;;;;;37.33;23.02;;;1.90;99.90;;;;;;5020953;28;20249;-38
2023/12/05 08:24:19;;;;;;;38.35;24.30;;;1.90;99.90;;;;;;5021439;28;20298;-37
2023/12/05 08:26:45;;;;;;;39.05;24.33;;;1.90;99.90;;;;;;5021263;28;20239;-37
2023/12/05 08:29:11;;;;;;;35.60;22.60;;;1.90;99.90;;;;;;5020621;28;20272;-36
2023/12/05 08:31:37;;;;;;;33.35;21.73;;;1.90;99.90;;;;;;5019555;28;20184;-36
2023/12/05 08:34:03;;;;;;;37.08;23.15;;;1.90;99.90;;;;;;5020279;28;20532;-35
2023/12/05 08:36:29;;;;;;;36.70;22.33;;;1.90;99.90;;;;;;5021417;28;20261;-37
2023/12/05 08:38:55;;;;;;;37.45;22.08;;;1.90;99.90;;;;;;5021519;28;20188;-37
2023/12/05 08:41:21;;;;;;;35.80;22.85;;;1.90;99.90;;;;;;5020842;28;20707;-36
2023/12/05 08:43:47;;;;;;;37.25;22.83;;;1.90;99.90;;;;;;5019829;28;20723;-37
2023/12/05 08:46:13;;;;;;;38.00;24.48;;;2.00;99.90;;;;;;5019482;28;20190;-35
2023/12/05 08:48:39;;;;;;;37.97;24.50;;;1.90;99.90;;;;;;5020856;28;20212;-34
2023/12/05 08:51:06;;;;;;;35.58;22.08;;;2.00;99.90;;;;;;5020734;28;20207;-36
2023/12/05 08:53:32;;;;;;;36.80;22.52;;;2.00;99.90;;;;;;5020754;28;20197;-36
2023/12/05 08:55:58;;;;;;;35.13;21.60;;;2.00;99.90;;;;;;5020225;28;20436;-36
2023/12/05 08:58:24;;;;;;;34.97;21.80;;;2.00;99.90;;;;;;5020585;28;20627;-36
2023/12/05 09:00:50;;;;;;;36.13;22.42;;;2.10;99.90;;;;;;5021163;28;20196;-36
2023/12/05 09:03:16;;;;;;;36.80;22.52;;;2.00;99.90;;;;;;5018365;28;20207;-39
2023/12/05 09:05:42;;;;;;;39.10;23.85;;;2.00;99.90;;;;;;5020409;28;20223;-35
2023/12/05 09:08:08;;;;;;;42.63;23.27;;;2.00;99.90;;;;;;5052046;28;20227;-37
2023/12/05 09:10:34;;;;;;;34.60;23.05;;;2.00;99.90;;;;;;5019771;28;20262;-37
2023/12/05 09:13:00;;;;;;;35.17;21.80;;;2.00;99.90;;;;;;5020203;28;20188;-36
2023/12/05 09:15:25;;;;;;;37.92;23.90;;;2.00;99.90;;;;;;5018941;28;20188;-37
2023/12/05 09:17:51;;;;;;;38.78;22.10;;;2.00;99.90;;;;;;5019555;28;20199;-37
2023/12/05 09:20:19;;;;;;;36.10;22.95;;;2.00;99.90;;;;;;5020774;28;20291;-37
2023/12/05 09:22:45;;;;;;;35.97;22.20;;;2.00;99.90;;;;;;5020721;28;20195;-37
2023/12/05 09:25:11;;;;;;;35.92;21.92;;;2.00;99.90;;;;;;5020502;28;20196;-37
2023/12/05 09:27:37;;;;;;;41.88;25.20;;;2.00;99.90;;;;;;5052414;28;20211;-36
2023/12/05 09:30:03;;;;;;;40.92;23.75;;;2.00;99.90;;;;;;5020658;28;20199;-36
2023/12/05 09:32:30;;;;;;;36.38;23.42;;;2.10;99.90;;;;;;5018999;28;20912;-36
2023/12/05 09:34:56;;;;;;;38.05;22.38;;;2.10;99.90;;;;;;5019346;28;20184;-36
2023/12/05 09:37:23;;;;;;;41.17;24.17;;;2.10;99.90;;;;;;5018872;28;20190;-36
2023/12/05 09:39:49;;;;;;;38.00;23.25;;;2.10;99.90;;;;;;5019927;28;20293;-37
2023/12/05 09:42:18;;;;;;;33.70;21.90;;;2.20;99.90;;;;;;5024142;28;20644;-38
2023/12/05 09:44:46;;;;;;;36.28;23.35;;;2.20;99.90;;;;;;5024261;28;20534;-36
2023/12/05 09:47:20;;;;;;;36.25;23.33;;;2.20;99.90;;;;;;5023614;28;20233;-34
2023/12/05 09:49:46;;;;;;;37.15;23.35;;;2.30;99.90;;;;;;5022786;28;21016;-39
2023/12/05 09:52:12;;;;;;;36.55;22.85;;;2.30;99.90;;;;;;5012401;28;20184;-37
2023/12/05 09:54:43;;;;;;;33.65;22.48;;;2.30;99.90;;;;;;5024377;28;20504;-35
2023/12/05 09:57:12;;;;;;;34.78;21.73;;;2.30;99.90;;;;;;5024781;28;20188;-37
2023/12/05 09:59:38;;;;;;;41.25;24.20;;;2.30;99.90;;;;;;5023634;28;20218;-37
2023/12/05 10:02:05;;;;;;;36.38;23.63;;;2.40;99.90;;;;;;5024570;28;20192;-37
2023/12/05 10:04:39;;;;;;;38.83;24.25;;;2.40;99.90;;;;;;5023489;28;20192;-36
2023/12/05 10:07:06;;;;;;;37.35;23.65;;;2.50;99.90;;;;;;5024767;28;20260;-35
2023/12/05 10:09:32;;;;;;;37.15;22.75;;;2.60;99.90;;;;;;5024532;28;20552;-37
2023/12/05 10:11:59;;;;;;;39.05;21.88;;;2.60;99.90;;;;;;5025012;28;20184;-44
2023/12/05 10:14:26;;;;;;;37.22;23.58;;;2.50;99.90;;;;;;5021741;28;20610;-37
2023/12/05 10:16:54;;;;;;;35.72;22.63;;;2.50;99.90;;;;;;5055076;28;20218;-37
2023/12/05 10:19:21;;;;;;;38.80;23.23;;;2.60;99.90;;;;;;5024118;28;20291;-37
2023/12/05 10:21:50;;;;;;;37.38;23.35;;;2.60;99.90;;;;;;5023678;28;20184;-41
2023/12/05 10:24:17;;;;;;;39.22;23.30;;;2.70;99.90;;;;;;5022250;28;20172;-37
2023/12/05 10:26:49;;;;;;;40.58;23.40;;;2.70;99.90;;;;;;5022353;28;20793;-39
2023/12/05 10:29:15;;;;;;;38.03;24.02;;;2.70;99.90;;;;;;5024065;28;20265;-36
2023/12/05 10:31:42;;;;;;;39.15;24.70;;;2.70;99.90;;;;;;5023961;28;20176;-41
2023/12/05 10:34:08;;;;;;;39.80;24.80;;;2.70;99.90;;;;;;5024023;28;20180;-38
2023/12/05 10:36:38;;;;;;;43.63;24.58;;;2.80;99.90;;;;;;5023127;28;20239;-34
2023/12/05 10:39:07;;;;;;;39.67;24.60;;;2.80;99.90;;;;;;5022549;28;20245;-36
2023/12/05 10:41:33;;;;;;;39.38;24.55;;;2.80;99.90;;;;;;5024340;28;20246;-37
2023/12/05 10:44:02;;;;;;;35.53;23.30;;;2.80;99.90;;;;;;5023308;28;20627;-39
2023/12/05 10:46:28;;;;;;;39.00;24.55;;;2.80;99.90;;;;;;5021234;28;20609;-36
2023/12/05 10:48:55;;;;;;;39.65;24.58;;;2.80;99.90;;;;;;5024171;28;20322;-36
2023/12/05 10:51:25;;;;;;;39.15;24.83;;;2.90;99.90;;;;;;5023679;28;20565;-38
2023/12/05 10:53:55;;;;;;;41.90;24.73;;;2.90;99.90;;;;;;5022678;28;20211;-38
2023/12/05 10:56:21;;;;;;;37.70;24.40;;;2.90;99.90;;;;;;5023787;28;20272;-37
2023/12/05 10:58:47;;;;;;;39.72;24.13;;;2.90;99.90;;;;;;5023153;28;20188;-38
2023/12/05 11:01:14;;;;;;;38.45;22.10;;;2.90;99.90;;;;;;5022770;28;20191;-36
2023/12/05 11:03:41;;;;;;;38.45;24.48;;;2.90;99.90;;;;;;5022877;28;20694;-37
2023/12/05 11:06:08;;;;;;;38.55;23.73;;;2.90;99.90;;;;;;5022539;28;20238;-35
2023/12/05 11:08:35;;;;;;;44.03;24.27;;;2.90;99.90;;;;;;5022903;28;20219;-37
2023/12/05 11:11:05;;;;;;;36.28;23.02;;;2.90;99.90;;;;;;5023455;28;20169;-36
2023/12/05 11:13:34;;;;;;;39.72;23.95;;;2.90;99.90;;;;;;5022787;28;20192;-35
2023/12/05 11:16:10;;;;;;;39.50;24.05;;;2.90;99.90;;;;;;5023080;28;20671;-39
2023/12/05 11:18:39;;;;;;;41.60;24.13;;;2.90;99.90;;;;;;5023369;28;20176;-37
2023/12/05 11:21:26;;;;;;;39.58;25.40;;;2.80;99.90;;;;;;5012279;28;20763;-37
2023/12/05 11:24:07;;;;;;;41.42;24.35;;;2.90;99.90;;;;;;5023153;28;20180;-37
2023/12/05 11:27:10;;;;;;;39.65;24.23;;;2.80;99.90;;;;;;5021837;28;20190;-37
2023/12/05 11:30:03;;;;;;;39.25;24.00;;;2.90;99.90;;;;;;5023024;28;20187;-36
2023/12/05 11:32:35;;;;;;;38.88;24.15;;;2.90;99.90;;;;;;5035984;28;20200;-40
2023/12/05 11:35:08;;;;;;;40.78;24.55;;;2.90;99.90;;;;;;5022099;28;20184;-43
2023/12/05 11:37:40;;;;;;;38.92;24.20;;;2.90;99.90;;;;;;5053730;28;20188;-42
2023/12/05 11:40:07;;;;;;;42.30;24.52;;;3.00;99.90;;;;;;5023356;28;20200;-40
2023/12/05 11:42:34;;;;;;;42.65;26.00;;;3.00;99.90;;;;;;5022159;28;20603;-35
2023/12/05 11:45:19;;;;;;;39.92;25.05;;;3.00;99.90;;;;;;5021297;28;20199;-37
2023/12/05 11:47:46;;;;;;;45.58;25.42;;;3.00;99.90;;;;;;5020730;28;20603;-35
2023/12/05 11:50:15;;;;;;;43.35;25.65;;;2.90;99.90;;;;;;5021514;28;20219;-37
2023/12/05 11:52:41;;;;;;;37.65;23.38;;;2.90;99.90;;;;;;5022014;28;20577;-35
2023/12/05 11:55:08;;;;;;;42.83;26.08;;;3.00;99.90;;;;;;5038440;28;20195;-37
2023/12/05 11:57:35;;;;;;;39.67;24.90;;;2.90;99.90;;;;;;5022208;28;20204;-37
2023/12/05 12:00:02;;;;;;;51.70;26.70;;;2.90;99.90;;;;;;5022980;28;20330;-36
2023/12/05 12:02:42;;;;;;;45.97;26.13;;;2.90;99.90;;;;;;5010094;28;20195;-37
2023/12/05 12:05:12;;;;;;;43.85;25.75;;;2.90;99.90;;;;;;5022250;28;20226;-36
2023/12/05 12:07:44;;;;;;;43.90;26.55;;;2.90;99.90;;;;;;5052650;28;20220;-36
2023/12/05 12:10:10;;;;;;;45.42;26.38;;;2.90;99.90;;;;;;5021942;28;20573;-37
2023/12/05 12:12:38;;;;;;;45.30;27.15;;;2.90;99.90;;;;;;5020187;28;20204;-37
2023/12/05 12:15:04;;;;;;;42.58;25.65;;;2.90;99.90;;;;;;5021964;28;20253;-37
2023/12/05 12:17:30;;;;;;;43.95;26.33;;;2.90;99.90;;;;;;5021785;28;20211;-36
2023/12/05 12:19:56;;;;;;;46.85;27.27;;;2.90;99.90;;;;;;5021807;28;20257;-35
2023/12/05 12:22:22;;;;;;;44.92;26.63;;;2.90;99.90;;;;;;5020754;28;20196;-38
2023/12/05 12:24:48;;;;;;;41.05;26.15;;;2.80;99.90;;;;;;5021326;28;20613;-38
2023/12/05 12:27:14;;;;;;;44.15;26.90;;;2.80;99.90;;;;;;5021668;28;20219;-38
2023/12/05 12:29:53;;;;;;;42.92;26.33;;;2.80;99.90;;;;;;5021706;28;20220;-35
2023/12/05 12:32:19;;;;;;;46.85;26.90;;;2.80;99.90;;;;;;5053710;28;20628;-36
2023/12/05 12:34:45;;;;;;;44.67;25.73;;;2.80;99.90;;;;;;5021049;28;20184;-36